Airfield :
LOGIN :

Register | Disclaimer

   EN    FR    IT 

 










Legend :    VFR   Marginal VFR   IFR   Intensive IFR   Very Intensive IFR
Visi :
Ceiling :
>= 8 km
>= 3000ft
5 to 8 km
1000 to 3000 ft
1500m to 5 km
500 to 1000 ft
800 to 1500m
200 to 500 ft
< 800m
< 200 ft
Symbols :   Thunderstorms  Fog  Heavy snow  Heavy precipitations  Wind > 20 kt
SIGMETs :     Misc.  Thunderstorms  Icing  Turbulence  Mountain Waves  Volcanic Ashes







- Airport Elevation : 277 ft
- IATA code : JER
- Download approach charts


EGJJ - Jersey

CURRENT METAR :
  • 121750Z 23015KT 9999 FEW025 08/05 Q1012

EXPIRED METARs :
  • 121720Z 22012KT 9999 FEW026 SCT040 08/05 Q1011
  • 121650Z 22013KT 9999 VCSH FEW020CB SCT026 08/05 Q1011
  • 121620Z 22010KT 9999 FEW020CB 07/05 Q1011
  • 121550Z 25021KT 9999 -RA FEW017CB SCT023 BKN032 07/05 Q1012 RESHGR RESHRA
  • 121450Z 21009KT 9999 VCSH FEW018CB SCT027 07/05 Q1011

TAF TAF EGJJ
Valid from the 12 at 18:00 until the 13 at 03:00 UTC


121703Z 1218/1303 21018KT 9999 FEW020 BKN030
PROB40
TEMPO 1218/1220 8000 SHRA BKN015CB
BECMG 1220/1222 19024G34KT 5000 RA BKN015
BECMG 1302/1303 28020KT 9999 NSW BKN030
ATIS : +44 1534 498 073
No reported NOTAMs for that airfield.
1 SIGMET reported for the Brest FIR (LFRR) :
 
Severe turbulence
LFRR SIGMET 6 VALID 121600/122000 LFPW
LFRR BREST FIR/UIR SEV TURB FCST WI N4330 W00145 - N4415 W00430 - N4730 W00430 - N4730 W00215 - N4330 W00145 FL250/400 MOV SE 30KT WKN=



MET'MAP, your aeronautical weather chart ! - Copyright ORBIFLY December 2007 - Disclaimer

ORBIFLY MET'MAP TEAM :

Programming & Development : Alexandra Zaïnal
Concept & Development : Baudouin d'Aumeries
Co-Development & Prog : Marc-Olivier Méhu
Technical & hardware support : Manuel Goepfert

Contact : metmap@orbifly.com




SOURCES & CREDITS :

   NOAA